Time;durP1;ratioP1;P1;durP2;ratioP2;P2;SDS_P1;SDS_P2;PMS_P1;PMS_P2;Temp;Humidity;BMP_temperature;BMP_pressure;BME280_temperature;BME280_humidity;BME280_pressure;Samples;Min_cycle;Max_cycle;Signal;HPM_P1;HPM_P2
2021/06/27 00:01:13;;;;;;;16.48;14.10;;;;;;;15.87;77.57;95676.72;4975616;28;20175;-74
2021/06/27 00:03:38;;;;;;;16.73;14.90;;;;;;;15.81;77.91;95672.19;4975357;28;20255;-75
2021/06/27 00:06:05;;;;;;;15.02;13.65;;;;;;;15.77;77.98;95676.97;4990517;28;20672;-74
2021/06/27 00:08:30;;;;;;;16.45;14.63;;;;;;;15.73;77.98;95683.56;4966727;28;20184;-74
2021/06/27 00:10:58;;;;;;;16.58;14.82;;;;;;;15.75;78.36;95680.75;4984448;28;20184;-74
2021/06/27 00:13:24;;;;;;;15.38;13.98;;;;;;;15.71;78.31;95679.47;4975514;28;20183;-74
2021/06/27 00:15:50;;;;;;;16.08;14.40;;;;;;;15.73;78.47;95674.91;4965594;28;20582;-74
2021/06/27 00:18:18;;;;;;;15.40;13.57;;;;;;;15.70;78.49;95683.06;4974785;28;20595;-74
2021/06/27 00:20:45;;;;;;;15.70;14.15;;;;;;;15.63;78.72;95674.28;4959060;28;20241;-74
2021/06/27 00:23:12;;;;;;;16.13;14.52;;;;;;;15.65;78.58;95678.38;4992347;28;20589;-74
2021/06/27 00:25:37;;;;;;;16.95;15.25;;;;;;;15.62;78.63;95678.72;4984564;28;20242;-74
2021/06/27 00:28:04;;;;;;;17.80;15.50;;;;;;;15.61;78.90;95678.91;4963621;28;20224;-73
2021/06/27 00:30:29;;;;;;;16.88;15.18;;;;;;;15.63;78.97;95676.91;4955844;28;20626;-75
2021/06/27 00:32:55;;;;;;;16.60;15.00;;;;;;;15.71;78.72;95672.44;4955800;28;20177;-74
2021/06/27 00:35:22;;;;;;;20.63;15.93;;;;;;;15.69;78.82;95666.56;4957680;28;20222;-74
2021/06/27 00:37:48;;;;;;;16.77;14.98;;;;;;;15.69;78.80;95665.75;4966531;28;20234;-74
2021/06/27 00:40:19;;;;;;;17.58;15.88;;;;;;;15.71;78.90;95669.00;4957229;28;20512;-74
2021/06/27 00:42:45;;;;;;;17.40;15.50;;;;;;;15.70;78.61;95670.00;4955661;28;20184;-74
2021/06/27 00:45:13;;;;;;;18.17;15.73;;;;;;;15.67;78.95;95670.34;4972454;28;20179;-74
2021/06/27 00:47:39;;;;;;;20.58;16.05;;;;;;;15.65;78.85;95667.91;4970841;28;20262;-74
2021/06/27 00:50:12;;;;;;;18.30;16.40;;;;;;;15.62;79.35;95667.44;4956022;28;20204;-74
2021/06/27 00:52:37;;;;;;;18.23;15.52;;;;;;;15.59;79.31;95673.81;4939517;28;20247;-74
2021/06/27 00:55:04;;;;;;;18.13;16.20;;;;;;;15.57;79.33;95673.19;4955103;28;20235;-75
2021/06/27 00:57:29;;;;;;;22.13;16.05;;;;;;;15.52;79.49;95671.06;4964003;28;20218;-74
2021/06/27 00:59:55;;;;;;;18.17;15.75;;;;;;;15.49;79.83;95676.66;4966484;28;20175;-75
2021/06/27 01:02:20;;;;;;;18.55;16.38;;;;;;;15.44;80.11;95673.75;4991946;28;20176;-74
2021/06/27 01:04:46;;;;;;;18.52;16.50;;;;;;;15.44;79.96;95670.31;4958347;28;20188;-75
2021/06/27 01:07:11;;;;;;;18.88;16.42;;;;;;;15.41;80.29;95668.06;4973769;28;20591;-74
2021/06/27 01:09:37;;;;;;;19.20;17.20;;;;;;;15.39;80.16;95673.47;4966482;28;20667;-74
2021/06/27 01:12:02;;;;;;;19.83;16.63;;;;;;;15.37;80.51;95675.47;4940515;28;20208;-75
2021/06/27 01:14:28;;;;;;;17.95;16.05;;;;;;;15.39;80.24;95672.66;4954939;28;20188;-74
2021/06/27 01:16:54;;;;;;;17.52;15.80;;;;;;;15.38;80.40;95666.63;4955190;28;20239;-73
2021/06/27 01:19:19;;;;;;;20.42;16.98;;;;;;;15.44;80.42;95660.66;4967836;28;20204;-74
2021/06/27 01:21:50;;;;;;;19.13;16.95;;;;;;;15.41;80.49;95676.72;4958837;28;20176;-74
2021/06/27 01:24:15;;;;;;;19.00;17.00;;;;;;;15.37;80.91;95675.47;4954946;28;20668;-74
2021/06/27 01:26:41;;;;;;;18.90;16.70;;;;;;;15.35;80.92;95672.19;4955083;28;20259;-74
2021/06/27 01:29:06;;;;;;;18.60;16.75;;;;;;;15.34;80.52;95673.16;4963457;28;20191;-74
2021/06/27 01:31:31;;;;;;;17.85;16.05;;;;;;;15.38;80.53;95671.84;4970121;28;20180;-74
2021/06/27 01:33:57;;;;;;;19.77;17.15;;;;;;;15.34;80.92;95681.00;4978062;28;20250;-74
2021/06/27 01:36:23;;;;;;;19.70;17.58;;;;;;;15.31;81.03;95686.59;4977894;28;20214;-74
2021/06/27 01:38:49;;;;;;;23.05;17.23;;;;;;;15.34;81.05;95686.25;4978170;28;20176;-74
2021/06/27 01:41:14;;;;;;;17.48;15.70;;;;;;;15.33;81.57;95684.63;4986534;28;20188;-74
2021/06/27 01:43:40;;;;;;;19.40;15.85;;;;;;;15.35;81.38;95684.44;4962686;28;20176;-74
2021/06/27 01:46:05;;;;;;;17.95;15.98;;;;;;;15.41;81.06;95678.53;4975776;28;20200;-74
2021/06/27 01:48:32;;;;;;;17.17;15.35;;;;;;;15.45;80.66;95675.38;4975522;28;20828;-75
2021/06/27 01:51:01;;;;;;;16.73;15.07;;;;;;;15.42;80.40;95672.31;4968193;28;20192;-74
2021/06/27 01:53:29;;;;;;;19.10;14.70;;;;;;;15.34;80.37;95665.31;4964304;28;20208;-74
2021/06/27 01:56:07;;;;;;;16.60;14.90;;;;;;;15.36;80.59;95670.38;4958511;28;20291;-74
2021/06/27 01:58:41;;;;;;;14.95;13.43;;;;;;;15.35;80.13;95677.41;4975796;28;20644;-74
2021/06/27 02:01:11;;;;;;;13.98;12.45;;;;;;;15.22;80.43;95675.38;4963926;28;20267;-74
2021/06/27 02:03:37;;;;;;;13.25;11.88;;;;;;;15.22;80.25;95682.41;4969408;28;20176;-75
2021/06/27 02:06:03;;;;;;;13.07;11.77;;;;;;;15.24;79.84;95675.19;4977634;28;20685;-74
2021/06/27 02:08:36;;;;;;;12.48;11.10;;;;;;;15.18;79.50;95681.91;4994908;28;20706;-74
2021/06/27 02:11:03;;;;;;;13.50;11.23;;;;;;;15.15;79.60;95676.22;4960482;28;20270;-74
2021/06/27 02:13:29;;;;;;;12.70;11.55;;;;;;;15.17;79.64;95675.06;4968968;28;20247;-74
2021/06/27 02:15:54;;;;;;;11.77;10.57;;;;;;;15.18;79.66;95678.50;4960377;28;20212;-74
2021/06/27 02:18:25;;;;;;;12.27;11.07;;;;;;;15.13;79.34;95658.09;4974246;28;20172;-74
2021/06/27 02:20:52;;;;;;;12.85;11.52;;;;;;;15.16;79.36;95654.31;4957961;28;20191;-75
2021/06/27 02:23:18;;;;;;;12.02;10.65;;;;;;;15.08;79.51;95643.91;4984198;28;20184;-74
2021/06/27 02:25:43;;;;;;;11.05;9.95;;;;;;;15.11;79.26;95638.34;4961935;28;20252;-74
2021/06/27 02:28:09;;;;;;;11.18;10.18;;;;;;;15.14;78.96;95636.19;4957866;28;20268;-74
2021/06/27 02:30:35;;;;;;;12.38;11.07;;;;;;;15.17;78.91;95642.88;4975174;28;20185;-74
2021/06/27 02:33:00;;;;;;;12.95;10.45;;;;;;;15.12;79.13;95642.59;4977968;28;20563;-74
2021/06/27 02:35:26;;;;;;;11.57;10.45;;;;;;;15.07;79.01;95637.84;4965119;28;20271;-74
2021/06/27 02:37:51;;;;;;;13.57;10.60;;;;;;;15.08;78.80;95638.69;4957570;28;20588;-74
2021/06/27 02:40:17;;;;;;;12.80;10.50;;;;;;;15.05;79.09;95631.19;4973997;28;20177;-74
2021/06/27 02:42:42;;;;;;;12.23;10.52;;;;;;;15.03;79.39;95631.34;4975244;28;20230;-74
2021/06/27 02:45:08;;;;;;;10.80;9.73;;;;;;;15.07;79.08;95631.81;4970212;28;20552;-74
2021/06/27 02:47:34;;;;;;;10.88;9.82;;;;;;;15.05;79.36;95639.03;4971771;28;20702;-74
2021/06/27 02:49:59;;;;;;;13.13;10.57;;;;;;;15.04;79.67;95632.97;4976380;28;20172;-74
2021/06/27 02:52:24;;;;;;;13.02;10.77;;;;;;;15.17;79.11;95621.94;4976839;28;20176;-74
2021/06/27 02:54:49;;;;;;;11.18;10.05;;;;;;;15.12;79.01;95625.09;4974979;28;20638;-74
2021/06/27 02:57:15;;;;;;;11.93;10.82;;;;;;;15.07;79.08;95618.75;4949163;28;20559;-74
2021/06/27 02:59:40;;;;;;;12.38;11.18;;;;;;;15.07;79.29;95601.25;4957227;28;20191;-74
2021/06/27 03:02:05;;;;;;;12.27;11.00;;;;;;;15.12;79.53;95598.13;4974625;28;20827;-74
2021/06/27 03:04:31;;;;;;;12.07;10.88;;;;;;;15.10;79.29;95600.06;4957230;28;20181;-74
2021/06/27 03:06:56;;;;;;;11.80;10.70;;;;;;;15.04;79.50;95595.56;4967087;28;20212;-74
2021/06/27 03:09:21;;;;;;;11.63;10.50;;;;;;;15.06;79.54;95604.03;4974556;28;20258;-74
2021/06/27 03:11:47;;;;;;;11.82;10.63;;;;;;;15.16;79.24;95600.19;4974419;28;20176;-74
2021/06/27 03:14:12;;;;;;;11.93;10.73;;;;;;;15.16;79.31;95592.34;4940784;28;20185;-74
2021/06/27 03:16:37;;;;;;;12.27;11.07;;;;;;;15.15;79.15;95597.75;4978861;28;20208;-74
2021/06/27 03:19:03;;;;;;;11.30;10.13;;;;;;;15.23;78.60;95582.81;4982166;28;20184;-74
2021/06/27 03:21:28;;;;;;;12.50;11.20;;;;;;;15.41;77.83;95582.50;4974184;28;20173;-74
2021/06/27 03:23:53;;;;;;;12.00;10.55;;;;;;;15.37;77.84;95581.25;4974029;28;20216;-74
2021/06/27 03:26:18;;;;;;;10.07;9.07;;;;;;;15.38;77.53;95580.25;4982217;28;20215;-74
2021/06/27 03:28:46;;;;;;;10.70;9.70;;;;;;;15.36;77.18;95566.53;4979213;28;20196;-74
2021/06/27 03:31:12;;;;;;;10.88;9.30;;;;;;;15.42;76.91;95557.97;4957673;28;20188;-74
2021/06/27 03:33:37;;;;;;;9.77;8.80;;;;;;;15.46;76.73;95551.41;4956337;28;20192;-74
2021/06/27 03:36:03;;;;;;;10.05;9.07;;;;;;;15.40;76.74;95554.72;4980705;28;20212;-74
2021/06/27 03:40:54;;;;;;;9.68;8.77;;;;;;;15.41;76.93;95561.59;4985358;28;20176;-74
2021/06/27 03:43:19;;;;;;;9.65;8.68;;;;;;;15.45;76.66;95564.66;4959554;28;20596;-74
2021/06/27 03:45:44;;;;;;;10.05;9.07;;;;;;;15.44;76.76;95569.06;4992175;28;20196;-75
2021/06/27 03:48:10;;;;;;;10.23;8.82;;;;;;;15.44;76.73;95578.72;4964604;28;20188;-75
2021/06/27 03:50:36;;;;;;;10.68;9.48;;;;;;;15.48;76.77;95593.91;4956211;28;20672;-75
2021/06/27 03:53:01;;;;;;;11.93;9.15;;;;;;;15.60;76.46;95602.16;4956339;28;20180;-75
2021/06/27 03:55:29;;;;;;;10.32;9.05;;;;;;;16.07;74.86;95606.28;4955903;28;20196;-75
2021/06/27 03:57:54;;;;;;;11.25;9.95;;;;;;;16.30;73.77;95611.47;4979001;28;20188;-74
2021/06/27 04:00:20;;;;;;;11.60;9.60;;;;;;;16.43;73.57;95609.00;4980314;28;20243;-74
2021/06/27 04:02:45;;;;;;;10.80;9.43;;;;;;;16.51;73.06;95616.78;4956203;28;20199;-74
2021/06/27 04:05:12;;;;;;;11.15;10.07;;;;;;;16.31;73.42;95629.63;4955871;28;20255;-75
2021/06/27 04:07:37;;;;;;;10.48;9.50;;;;;;;16.27;73.99;95622.31;4961804;28;20235;-75
2021/06/27 04:10:03;;;;;;;10.63;9.55;;;;;;;16.29;73.45;95623.75;4965179;28;20216;-75
2021/06/27 04:12:28;;;;;;;12.48;9.85;;;;;;;16.27;73.84;95617.06;4956130;28;20303;-75
2021/06/27 04:14:53;;;;;;;10.77;9.75;;;;;;;16.17;74.20;95617.34;4972849;28;20236;-75
2021/06/27 04:17:21;;;;;;;10.07;9.10;;;;;;;16.14;74.69;95615.88;4956000;28;20207;-75
2021/06/27 04:19:47;;;;;;;10.98;9.55;;;;;;;16.20;74.33;95614.34;4957683;28;20191;-75
2021/06/27 04:22:12;;;;;;;9.77;8.77;;;;;;;16.40;73.88;95614.63;4972001;28;20183;-74
2021/06/27 04:24:37;;;;;;;9.77;8.90;;;;;;;16.58;72.70;95619.47;4955727;28;20179;-75
2021/06/27 04:27:03;;;;;;;10.13;8.23;;;;;;;16.93;71.68;95623.97;4955868;28;20203;-75
2021/06/27 04:29:28;;;;;;;8.57;7.72;;;;;;;17.04;71.24;95622.66;4960697;28;20180;-75
2021/06/27 04:31:54;;;;;;;8.18;7.47;;;;;;;16.98;71.01;95621.63;4981084;28;20184;-74
2021/06/27 04:34:20;;;;;;;8.02;7.32;;;;;;;16.83;71.03;95610.34;4955418;28;20177;-75
2021/06/27 04:36:46;;;;;;;7.30;6.55;;;;;;;16.83;70.63;95612.16;4955924;28;20607;-74
2021/06/27 04:39:14;;;;;;;8.13;7.43;;;;;;;16.79;71.07;95608.28;4957899;28;20214;-74
2021/06/27 04:41:41;;;;;;;7.97;7.28;;;;;;;16.77;70.77;95603.19;4967327;28;20587;-74
2021/06/27 04:44:07;;;;;;;7.82;7.13;;;;;;;16.92;70.57;95608.41;4973075;28;20185;-74
2021/06/27 04:46:32;;;;;;;8.15;7.35;;;;;;;16.88;70.18;95607.19;4955503;28;20291;-75
2021/06/27 04:48:57;;;;;;;9.68;7.63;;;;;;;16.80;70.57;95605.47;4955389;28;20283;-74
2021/06/27 04:51:23;;;;;;;7.60;6.90;;;;;;;16.81;70.83;95598.41;4979919;28;20242;-74
2021/06/27 04:53:48;;;;;;;8.10;7.40;;;;;;;16.89;70.58;95598.31;4958309;28;20263;-74
2021/06/27 04:56:13;;;;;;;8.45;7.55;;;;;;;16.85;70.81;95599.66;4955258;28;20200;-74
2021/06/27 04:58:39;;;;;;;7.85;7.05;;;;;;;16.96;70.37;95602.63;4955503;28;20239;-74
2021/06/27 05:01:04;;;;;;;7.97;7.18;;;;;;;17.05;70.04;95610.34;4959738;28;20562;-74
2021/06/27 05:03:30;;;;;;;7.78;7.00;;;;;;;17.74;67.10;95608.81;4967067;28;20596;-74
2021/06/27 05:05:55;;;;;;;8.23;7.30;;;;;;;18.36;66.10;95608.00;4979059;28;20203;-74
2021/06/27 05:08:20;;;;;;;7.40;6.70;;;;;;;19.20;62.95;95593.78;4961645;28;20184;-74
2021/06/27 05:10:45;;;;;;;8.45;6.75;;;;;;;21.33;57.53;95595.00;4978950;28;20570;-74
2021/06/27 05:13:11;;;;;;;5.97;5.47;;;;;;;23.79;49.33;95589.44;4989371;28;20207;-74
2021/06/27 05:15:36;;;;;;;5.57;5.10;;;;;;;25.05;45.40;95605.75;4983531;28;20591;-75
2021/06/27 05:18:02;;;;;;;5.50;5.03;;;;;;;26.25;42.04;95607.28;4945588;28;20202;-75
2021/06/27 05:20:27;;;;;;;5.05;4.65;;;;;;;26.60;40.91;95608.84;4961777;28;20207;-75
2021/06/27 05:22:52;;;;;;;4.72;4.32;;;;;;;25.97;42.39;95605.50;4970715;28;20191;-75
2021/06/27 05:25:18;;;;;;;6.50;5.25;;;;;;;25.11;43.42;95608.25;4973296;28;20222;-75
2021/06/27 05:27:43;;;;;;;5.70;5.10;;;;;;;23.72;46.39;95602.00;4998463;28;20179;-74
2021/06/27 05:30:09;;;;;;;5.30;4.90;;;;;;;23.80;47.03;95601.66;4980947;28;20215;-74
2021/06/27 05:32:35;;;;;;;5.45;4.80;;;;;;;23.99;46.41;95595.22;4979712;28;20519;-75
2021/06/27 05:35:00;;;;;;;5.07;4.68;;;;;;;23.82;46.42;95596.94;4970420;28;20211;-75
2021/06/27 05:37:26;;;;;;;4.82;4.43;;;;;;;24.08;45.84;95586.94;4961389;28;20208;-75
2021/06/27 05:39:51;;;;;;;4.30;4.00;;;;;;;24.97;43.94;95593.59;4961419;28;20184;-75
2021/06/27 05:42:18;;;;;;;5.00;4.50;;;;;;;23.58;46.94;95596.06;4978842;28;20180;-74
2021/06/27 05:44:44;;;;;;;5.00;4.60;;;;;;;22.23;50.28;95601.59;4968920;28;20568;-74
2021/06/27 05:47:09;;;;;;;5.40;5.00;;;;;;;22.53;49.61;95601.72;4986526;28;20208;-75
2021/06/27 05:49:35;;;;;;;6.18;5.43;;;;;;;23.27;48.53;95599.78;4978647;28;20586;-75
2021/06/27 05:52:00;;;;;;;4.65;4.25;;;;;;;23.69;47.09;95586.56;4978684;28;20706;-74
2021/06/27 05:54:25;;;;;;;4.80;4.40;;;;;;;23.36;47.22;95592.31;4980861;28;20212;-75
2021/06/27 05:56:51;;;;;;;5.18;4.78;;;;;;;23.93;46.15;95596.13;4986466;28;20213;-74
2021/06/27 05:59:16;;;;;;;5.13;4.72;;;;;;;23.76;46.31;95589.88;4961207;28;20219;-74
2021/06/27 06:01:41;;;;;;;5.22;4.72;;;;;;;23.90;46.22;95585.19;4978544;28;20184;-75
2021/06/27 06:04:07;;;;;;;4.88;4.47;;;;;;;24.03;45.66;95587.63;4960782;28;20176;-74
2021/06/27 06:06:32;;;;;;;4.85;4.45;;;;;;;23.41;46.85;95593.28;4971957;28;20195;-75
2021/06/27 06:08:57;;;;;;;6.50;4.95;;;;;;;23.83;46.64;95597.75;4963015;28;20216;-76
2021/06/27 06:11:25;;;;;;;5.40;4.97;;;;;;;25.65;42.45;95603.38;4961745;28;20180;-76
2021/06/27 06:13:50;;;;;;;4.93;4.53;;;;;;;26.66;39.97;95624.63;4961178;28;20180;-76
2021/06/27 06:16:16;;;;;;;5.10;4.43;;;;;;;27.65;37.71;95611.09;4960282;28;20212;-76
2021/06/27 06:18:43;;;;;;;4.15;3.85;;;;;;;28.25;36.37;95608.38;4975432;28;20210;-75
2021/06/27 06:21:09;;;;;;;4.30;3.90;;;;;;;29.25;33.76;95609.19;4957488;28;20180;-77
2021/06/27 06:23:34;;;;;;;4.30;4.00;;;;;;;28.78;35.12;95612.72;4975406;28;20183;-75
2021/06/27 06:25:59;;;;;;;3.70;3.47;;;;;;;29.30;33.71;95607.31;4977769;28;20258;-76
2021/06/27 06:28:25;;;;;;;4.03;3.63;;;;;;;28.34;35.30;95606.84;4983614;28;20177;-77
2021/06/27 06:30:50;;;;;;;4.63;4.22;;;;;;;28.00;36.40;95606.31;4959108;28;20247;-76
2021/06/27 06:33:15;;;;;;;3.95;3.65;;;;;;;28.82;35.07;95613.00;4957919;28;20180;-76
2021/06/27 06:35:42;;;;;;;3.53;3.30;;;;;;;28.94;34.91;95616.28;4975233;28;20232;-75
2021/06/27 06:38:08;;;;;;;4.40;4.00;;;;;;;27.77;36.34;95600.28;4957037;28;20286;-75
2021/06/27 06:40:33;;;;;;;3.95;3.65;;;;;;;27.77;36.73;95602.97;4963075;28;20466;-76
2021/06/27 06:42:59;;;;;;;3.92;3.63;;;;;;;27.98;36.36;95589.78;4974103;28;20211;-76
2021/06/27 06:45:25;;;;;;;4.28;3.88;;;;;;;28.23;35.85;95596.09;4957615;28;20168;-76
2021/06/27 06:47:51;;;;;;;3.97;3.60;;;;;;;28.27;36.24;95593.72;4966195;28;20184;-75
2021/06/27 06:50:16;;;;;;;4.38;4.00;;;;;;;28.32;35.76;95588.44;4986282;28;20234;-75
2021/06/27 06:52:42;;;;;;;3.90;3.60;;;;;;;28.84;34.80;95589.50;4986034;28;20200;-76
2021/06/27 06:55:07;;;;;;;4.35;3.70;;;;;;;29.03;34.45;95587.97;4965187;28;20196;-75
2021/06/27 06:57:32;;;;;;;4.22;3.15;;;;;;;30.26;32.89;95599.66;4975511;28;20295;-75
2021/06/27 06:59:58;;;;;;;3.83;3.53;;;;;;;29.88;32.99;95594.56;4959079;28;20223;-75
2021/06/27 07:02:23;;;;;;;3.95;3.65;;;;;;;29.69;33.77;95584.69;4968084;28;20532;-75
2021/06/27 07:04:48;;;;;;;3.67;3.42;;;;;;;31.28;30.53;95595.59;4973066;28;20196;-76
2021/06/27 07:07:14;;;;;;;4.43;4.03;;;;;;;29.90;32.75;95596.97;4994327;28;20675;-75
2021/06/27 07:09:39;;;;;;;4.50;4.10;;;;;;;30.35;32.56;95598.84;4986391;28;20184;-75
2021/06/27 07:12:05;;;;;;;4.38;3.80;;;;;;;29.53;33.49;95592.69;4965518;28;20192;-75
2021/06/27 07:14:30;;;;;;;4.00;3.70;;;;;;;28.82;35.26;95591.63;4974529;28;20540;-75
2021/06/27 07:16:55;;;;;;;4.00;3.70;;;;;;;26.92;39.62;95591.09;4957458;28;20303;-75
2021/06/27 07:19:21;;;;;;;5.28;4.05;;;;;;;27.47;38.92;95586.63;4961598;28;20219;-74
2021/06/27 07:21:46;;;;;;;4.20;3.80;;;;;;;28.75;35.98;95586.50;4968240;28;20219;-74
2021/06/27 07:24:11;;;;;;;3.97;3.67;;;;;;;29.88;34.21;95591.91;4941721;28;20265;-73
2021/06/27 07:26:37;;;;;;;4.13;3.83;;;;;;;29.00;36.03;95594.66;4975883;28;20573;-74
2021/06/27 07:29:02;;;;;;;4.35;3.95;;;;;;;29.90;33.96;95589.75;4966251;28;20191;-74
2021/06/27 07:31:27;;;;;;;4.90;4.00;;;;;;;29.19;34.90;95592.31;4955947;28;20195;-74
2021/06/27 07:33:53;;;;;;;4.03;3.72;;;;;;;29.57;34.82;95585.72;4975731;28;20612;-75
2021/06/27 07:36:18;;;;;;;4.65;4.00;;;;;;;28.93;35.86;95583.41;4975757;28;20320;-75
2021/06/27 07:38:43;;;;;;;4.47;4.05;;;;;;;28.74;35.95;95579.56;4977521;28;20180;-74
2021/06/27 07:41:08;;;;;;;3.95;3.65;;;;;;;27.70;37.49;95582.88;4989793;28;20185;-75
2021/06/27 07:43:35;;;;;;;4.32;4.03;;;;;;;28.27;36.38;95575.03;4964373;28;20177;-76
2021/06/27 07:46:00;;;;;;;4.00;3.70;;;;;;;28.52;37.06;95576.25;4956421;28;20692;-75
2021/06/27 07:48:25;;;;;;;4.07;3.67;;;;;;;28.20;37.07;95579.78;4956614;28;20181;-76
2021/06/27 07:50:51;;;;;;;4.43;3.72;;;;;;;28.43;37.77;95583.94;4957000;28;20184;-77
2021/06/27 07:53:16;;;;;;;4.05;3.75;;;;;;;28.33;38.44;95584.69;4971469;28;20185;-76
2021/06/27 07:55:42;;;;;;;4.75;4.25;;;;;;;28.56;38.80;95583.50;4973523;28;20204;-74
2021/06/27 07:58:07;;;;;;;4.72;4.00;;;;;;;28.59;37.71;95582.16;4972530;28;20192;-75
2021/06/27 08:00:32;;;;;;;4.47;3.63;;;;;;;28.70;37.17;95589.97;4955996;28;20187;-77
2021/06/27 08:02:58;;;;;;;3.85;3.55;;;;;;;27.93;38.06;95587.88;4960791;28;20188;-76
2021/06/27 08:05:24;;;;;;;4.47;4.18;;;;;;;28.09;39.00;95583.44;4962234;28;20229;-76
2021/06/27 08:07:49;;;;;;;6.45;4.30;;;;;;;28.26;39.13;95588.63;4956235;28;20570;-77
2021/06/27 08:10:14;;;;;;;6.05;4.20;;;;;;;27.81;39.20;95595.25;4955815;28;20212;-77
2021/06/27 08:12:41;;;;;;;5.05;4.50;;;;;;;27.56;40.19;95587.78;4961144;28;20219;-77
2021/06/27 08:15:09;;;;;;;5.28;4.40;;;;;;;27.54;40.83;95595.25;4964470;28;20663;-77
2021/06/27 08:17:35;;;;;;;4.38;4.00;;;;;;;27.53;40.44;95586.44;4940981;28;20204;-77
2021/06/27 08:20:00;;;;;;;4.50;4.20;;;;;;;27.60;40.92;95583.56;4955985;28;20172;-76
2021/06/27 08:22:25;;;;;;;4.60;4.20;;;;;;;27.59;40.67;95582.78;4956182;28;20548;-78
2021/06/27 08:24:51;;;;;;;4.20;3.90;;;;;;;27.42;40.64;95582.06;4956534;28;20192;-76
2021/06/27 08:27:16;;;;;;;4.22;3.92;;;;;;;27.75;39.87;95580.28;4958879;28;20200;-75
2021/06/27 08:29:41;;;;;;;4.35;3.97;;;;;;;26.94;41.45;95577.53;4975056;28;20175;-75
2021/06/27 08:32:07;;;;;;;4.57;3.83;;;;;;;27.28;41.34;95571.00;4992484;28;20176;-76
2021/06/27 08:34:32;;;;;;;4.03;3.60;;;;;;;26.49;43.01;95576.72;4967493;28;20618;-76
2021/06/27 08:36:58;;;;;;;4.10;3.80;;;;;;;26.45;43.69;95575.63;4980371;28;20287;-76
2021/06/27 08:39:23;;;;;;;4.55;4.18;;;;;;;26.36;42.94;95571.75;4960433;28;20187;-76
2021/06/27 08:41:49;;;;;;;4.18;3.88;;;;;;;26.40;42.74;95572.88;4972935;28;20659;-74
2021/06/27 08:44:14;;;;;;;4.43;4.13;;;;;;;26.52;41.65;95570.94;4957139;28;20188;-75
2021/06/27 08:46:43;;;;;;;4.40;4.00;;;;;;;26.52;41.13;95580.78;4950913;28;20221;-75
2021/06/27 08:49:10;;;;;;;4.15;3.78;;;;;;;26.38;42.44;95569.66;4955899;28;20184;-76
2021/06/27 08:51:45;;;;;;;4.22;3.92;;;;;;;26.41;41.63;95563.84;4939851;28;20200;-75
2021/06/27 08:54:11;;;;;;;4.13;3.63;;;;;;;26.30;41.42;95563.94;4956026;28;20186;-76
2021/06/27 08:56:37;;;;;;;4.20;3.90;;;;;;;26.36;40.77;95560.28;4984561;28;20219;-75
2021/06/27 08:59:03;;;;;;;4.18;3.78;;;;;;;26.35;41.17;95569.34;4940497;28;20271;-75
2021/06/27 09:01:29;;;;;;;5.25;4.22;;;;;;;26.09;42.10;95566.31;4955621;28;20664;-75
2021/06/27 09:03:58;;;;;;;4.60;4.20;;;;;;;25.61;42.78;95559.69;4972392;28;20253;-76
2021/06/27 09:06:37;;;;;;;4.00;3.70;;;;;;;25.60;41.93;95557.25;4975443;28;20283;-76
2021/06/27 09:09:21;;;;;;;4.40;4.00;;;;;;;25.57;42.68;95558.56;4963213;28;20267;-76
2021/06/27 09:12:00;;;;;;;4.45;4.15;;;;;;;25.61;43.12;95559.69;4962446;28;20183;-75
2021/06/27 09:14:45;;;;;;;5.28;4.53;;;;;;;25.48;44.25;95554.69;4972918;28;20175;-74
2021/06/27 09:17:23;;;;;;;4.45;4.05;;;;;;;25.44;42.98;95553.53;4984899;28;20684;-76
2021/06/27 09:20:07;;;;;;;4.53;3.70;;;;;;;25.66;44.01;95558.97;4980585;28;20802;-75
2021/06/27 09:22:48;;;;;;;3.90;3.60;;;;;;;26.08;42.55;95567.38;4955746;28;20180;-76
2021/06/27 09:25:19;;;;;;;4.43;4.10;;;;;;;25.81;40.84;95569.09;4955123;28;20176;-75
2021/06/27 09:27:46;;;;;;;3.95;3.65;;;;;;;26.12;41.30;95563.16;4980786;28;20196;-75
2021/06/27 09:30:19;;;;;;;4.07;3.60;;;;;;;26.32;40.18;95569.81;4963244;28;20187;-75
2021/06/27 09:33:09;;;;;;;4.03;3.63;;;;;;;26.37;42.05;95576.00;4955318;28;20660;-75
2021/06/27 09:35:43;;;;;;;4.00;3.70;;;;;;;26.53;40.15;95571.72;4955010;28;20223;-75
2021/06/27 09:38:30;;;;;;;3.72;3.42;;;;;;;26.75;39.38;95577.84;4960916;28;20190;-75
2021/06/27 09:41:05;;;;;;;4.05;3.65;;;;;;;26.90;39.53;95581.75;4966415;28;20242;-75
2021/06/27 09:43:33;;;;;;;3.63;3.33;;;;;;;27.10;39.71;95576.69;4974167;28;20167;-76
2021/06/27 09:46:11;;;;;;;3.78;3.45;;;;;;;27.06;39.11;95575.59;4974211;28;20571;-74
2021/06/27 09:48:51;;;;;;;3.80;3.50;;;;;;;27.02;39.44;95566.44;4974850;28;20192;-76
2021/06/27 09:51:17;;;;;;;3.80;3.50;;;;;;;27.26;38.46;95564.31;4994313;28;20194;-75
2021/06/27 09:53:45;;;;;;;4.03;3.72;;;;;;;27.17;38.75;95574.63;4977828;28;20550;-75
2021/06/27 09:56:10;;;;;;;4.03;3.50;;;;;;;26.93;37.72;95570.59;4961951;28;20909;-76
2021/06/27 09:58:36;;;;;;;3.50;3.20;;;;;;;26.99;38.28;95573.06;4977895;28;20184;-76
2021/06/27 10:01:03;;;;;;;4.72;3.67;;;;;;;27.31;37.97;95569.72;4974782;28;20219;-75
2021/06/27 10:03:29;;;;;;;3.15;2.83;;;;;;;27.53;36.83;95565.09;4977435;28;20185;-77
2021/06/27 10:06:06;;;;;;;3.50;3.20;;;;;;;27.68;36.94;95571.66;4997077;28;20234;-75
2021/06/27 10:08:31;;;;;;;3.55;3.25;;;;;;;27.85;35.05;95567.00;4997100;28;20186;-75
2021/06/27 10:11:11;;;;;;;3.42;3.15;;;;;;;27.68;35.45;95567.13;4975039;28;20184;-76
2021/06/27 10:13:36;;;;;;;3.17;2.88;;;;;;;27.80;35.56;95566.94;4962469;28;20180;-75
2021/06/27 10:16:02;;;;;;;3.50;3.25;;;;;;;27.11;36.79;95567.63;4975083;28;20204;-75
2021/06/27 10:18:27;;;;;;;4.47;3.65;;;;;;;26.80;38.53;95563.81;4975328;28;20189;-74
2021/06/27 10:20:53;;;;;;;3.75;3.40;;;;;;;26.93;37.91;95555.41;4947896;28;20219;-76
2021/06/27 10:23:19;;;;;;;3.60;3.30;;;;;;;27.35;38.30;95563.59;4969051;28;20195;-76
2021/06/27 10:25:44;;;;;;;4.55;3.17;;;;;;;27.35;37.53;95568.94;4977179;28;20200;-75
2021/06/27 10:28:10;;;;;;;3.65;3.45;;;;;;;27.56;36.35;95567.25;4977270;28;20168;-75
2021/06/27 10:30:36;;;;;;;3.17;2.97;;;;;;;27.59;37.29;95576.63;4976918;28;20195;-75
2021/06/27 10:33:01;;;;;;;3.38;3.08;;;;;;;27.44;36.16;95566.63;4976017;28;20223;-75
2021/06/27 10:35:27;;;;;;;3.20;3.00;;;;;;;27.28;37.81;95560.34;4960313;28;20215;-75
2021/06/27 10:37:52;;;;;;;3.25;3.05;;;;;;;27.19;36.67;95556.50;4976951;28;20180;-75
2021/06/27 10:40:19;;;;;;;3.75;3.35;;;;;;;27.84;36.92;95560.88;4976985;28;20179;-75
2021/06/27 10:42:47;;;;;;;3.10;2.80;;;;;;;27.83;35.88;95558.44;4969319;28;20184;-74
2021/06/27 10:45:13;;;;;;;3.38;3.13;;;;;;;28.23;33.59;95557.91;4986075;28;20176;-75
2021/06/27 10:47:39;;;;;;;3.28;3.00;;;;;;;27.99;33.46;95565.50;4976910;28;20196;-74
2021/06/27 10:50:07;;;;;;;3.17;2.83;;;;;;;28.08;33.64;95552.47;4977014;28;20270;-74
2021/06/27 10:52:57;;;;;;;3.15;2.95;;;;;;;28.16;34.16;95554.66;4993374;28;20183;-75
2021/06/27 10:55:24;;;;;;;2.95;2.75;;;;;;;28.28;33.36;95549.94;4952318;28;20203;-75
2021/06/27 10:57:53;;;;;;;2.85;2.65;;;;;;;28.39;35.01;95550.81;4976785;28;20178;-75
2021/06/27 11:00:19;;;;;;;3.28;3.00;;;;;;;28.38;33.65;95536.66;4993544;28;20722;-75
2021/06/27 11:02:44;;;;;;;3.70;3.10;;;;;;;27.58;33.72;95549.16;4975946;28;20191;-74
2021/06/27 11:05:28;;;;;;;3.38;3.10;;;;;;;27.91;34.82;95536.59;4981154;28;20177;-75
2021/06/27 11:07:58;;;;;;;2.85;2.65;;;;;;;27.86;33.66;95540.06;4991561;28;20727;-75
2021/06/27 11:10:24;;;;;;;2.90;2.70;;;;;;;27.28;33.99;95541.66;4976511;28;20183;-75
2021/06/27 11:12:58;;;;;;;2.72;2.53;;;;;;;27.38;34.16;95547.09;4993726;28;20180;-75
2021/06/27 11:15:28;;;;;;;3.00;2.65;;;;;;;27.48;32.88;95535.75;4984422;28;20231;-74
2021/06/27 11:17:55;;;;;;;2.90;2.70;;;;;;;27.43;34.93;95533.00;4976804;28;20180;-75
2021/06/27 11:20:20;;;;;;;3.10;2.90;;;;;;;27.75;36.25;95535.72;4956971;28;20653;-76
2021/06/27 11:22:47;;;;;;;3.30;2.80;;;;;;;28.19;33.19;95540.81;4974133;28;20211;-75
2021/06/27 11:25:39;;;;;;;3.25;2.95;;;;;;;27.61;33.57;95535.31;4944919;28;20199;-75
2021/06/27 11:28:20;;;;;;;3.40;3.10;;;;;;;27.10;36.20;95534.03;4975190;28;20830;-75
2021/06/27 11:30:46;;;;;;;3.13;2.80;;;;;;;27.76;35.43;95537.31;4993585;28;20258;-75